TimeCST,TemperatureF,Dew PointF,Humidity,Sea Level PressureIn,VisibilityMPH,Wind Direction,Wind SpeedMPH,Gust SpeedMPH,PrecipitationIn,Events,Conditions,WindDirDegrees,DateUTC
12:52 AM,21.0,18.0,88,30.28,9.0,Calm,Calm,-,N/A,,Clear,0,2013-01-06 06:52:00
1:52 AM,21.9,18.0,85,30.30,10.0,SW,3.5,-,N/A,,Clear,230,2013-01-06 07:52:00
2:52 AM,19.0,15.1,85,30.31,10.0,Calm,Calm,-,N/A,,Clear,0,2013-01-06 08:52:00
3:52 AM,19.9,17.1,89,30.32,10.0,Calm,Calm,-,N/A,,Clear,0,2013-01-06 09:52:00
4:52 AM,18.0,15.1,88,30.33,10.0,Calm,Calm,-,N/A,,Clear,0,2013-01-06 10:52:00
5:52 AM,18.0,15.1,88,30.35,10.0,Calm,Calm,-,N/A,,Clear,0,2013-01-06 11:52:00
6:52 AM,18.0,15.1,88,30.38,10.0,Calm,Calm,-,N/A,,Clear,0,2013-01-06 12:52:00
7:52 AM,18.0,15.1,88,30.40,10.0,Calm,Calm,-,N/A,,Clear,0,2013-01-06 13:52:00
8:52 AM,28.9,21.9,75,30.42,10.0,NNW,8.1,-,N/A,,Clear,330,2013-01-06 14:52:00
9:52 AM,32.0,21.9,66,30.44,10.0,NNW,9.2,-,N/A,,Clear,340,2013-01-06 15:52:00
10:52 AM,35.1,21.9,59,30.43,10.0,North,5.8,-,N/A,,Clear,360,2013-01-06 16:52:00
11:52 AM,39.0,21.0,49,30.42,10.0,NNW,5.8,-,N/A,,Clear,330,2013-01-06 17:52:00
12:52 PM,43.0,19.9,40,30.40,10.0,NNW,8.1,-,N/A,,Clear,340,2013-01-06 18:52:00
1:52 PM,45.0,19.0,36,30.37,10.0,NNW,6.9,-,N/A,,Clear,340,2013-01-06 19:52:00
2:52 PM,46.9,18.0,32,30.37,10.0,NNE,3.5,-,N/A,,Clear,20,2013-01-06 20:52:00
3:52 PM,46.9,18.0,32,30.36,10.0,Calm,Calm,-,N/A,,Clear,0,2013-01-06 21:52:00
4:52 PM,44.1,18.0,35,30.37,10.0,Calm,Calm,-,N/A,,Clear,0,2013-01-06 22:52:00
5:52 PM,30.9,17.1,57,30.37,10.0,Calm,Calm,-,N/A,,Clear,0,2013-01-06 23:52:00
6:52 PM,27.0,16.0,63,30.38,10.0,Calm,Calm,-,N/A,,Clear,0,2013-01-07 00:52:00
7:52 PM,27.0,16.0,63,30.38,10.0,SE,3.5,-,N/A,,Clear,130,2013-01-07 01:52:00
8:52 PM,30.0,18.0,61,30.37,10.0,Calm,Calm,-,N/A,,Clear,0,2013-01-07 02:52:00
9:52 PM,28.9,18.0,64,30.37,10.0,Calm,Calm,-,N/A,,Clear,0,2013-01-07 03:52:00
10:52 PM,26.1,18.0,71,30.37,10.0,Calm,Calm,-,N/A,,Clear,0,2013-01-07 04:52:00
11:52 PM,21.9,16.0,78,30.37,10.0,Calm,Calm,-,N/A,,Clear,0,2013-01-07 05:52:00